sensor_id;sensor_type;location;lat;lon;timestamp;P1;durP1;ratioP1;P2;durP2;ratioP2
23101;SDS011;11720;51.214;22.574;2023-05-14T00:01:26;42.45;;;17.15;;
23101;SDS011;11720;51.214;22.574;2023-05-14T00:03:52;40.78;;;17.95;;
23101;SDS011;11720;51.214;22.574;2023-05-14T00:06:18;49.30;;;18.77;;
23101;SDS011;11720;51.214;22.574;2023-05-14T00:08:43;39.13;;;16.50;;
23101;SDS011;11720;51.214;22.574;2023-05-14T00:11:09;47.35;;;16.98;;
23101;SDS011;11720;51.214;22.574;2023-05-14T00:13:35;40.15;;;16.50;;
23101;SDS011;11720;51.214;22.574;2023-05-14T00:16:01;44.33;;;18.20;;
23101;SDS011;11720;51.214;22.574;2023-05-14T00:18:27;48.60;;;16.80;;
23101;SDS011;11720;51.214;22.574;2023-05-14T00:20:53;41.65;;;18.73;;
23101;SDS011;11720;51.214;22.574;2023-05-14T00:23:21;38.80;;;17.00;;
23101;SDS011;11720;51.214;22.574;2023-05-14T00:25:48;38.42;;;15.93;;
23101;SDS011;11720;51.214;22.574;2023-05-14T00:28:13;47.13;;;17.48;;
23101;SDS011;11720;51.214;22.574;2023-05-14T00:30:40;40.20;;;17.47;;
23101;SDS011;11720;51.214;22.574;2023-05-14T00:33:06;44.35;;;16.63;;
23101;SDS011;11720;51.214;22.574;2023-05-14T00:35:32;42.65;;;17.20;;
23101;SDS011;11720;51.214;22.574;2023-05-14T00:37:59;46.72;;;17.23;;
23101;SDS011;11720;51.214;22.574;2023-05-14T00:40:26;40.90;;;15.68;;
23101;SDS011;11720;51.214;22.574;2023-05-14T00:42:52;47.13;;;17.53;;
23101;SDS011;11720;51.214;22.574;2023-05-14T00:45:19;48.80;;;16.38;;
23101;SDS011;11720;51.214;22.574;2023-05-14T00:47:44;33.30;;;15.23;;
23101;SDS011;11720;51.214;22.574;2023-05-14T00:50:11;37.30;;;14.48;;
23101;SDS011;11720;51.214;22.574;2023-05-14T00:52:38;52.97;;;16.13;;
23101;SDS011;11720;51.214;22.574;2023-05-14T00:55:05;40.72;;;17.13;;
23101;SDS011;11720;51.214;22.574;2023-05-14T00:57:32;35.37;;;15.97;;
23101;SDS011;11720;51.214;22.574;2023-05-14T01:00:00;36.13;;;16.23;;
23101;SDS011;11720;51.214;22.574;2023-05-14T01:02:27;38.73;;;15.70;;
23101;SDS011;11720;51.214;22.574;2023-05-14T01:04:53;43.22;;;17.80;;
23101;SDS011;11720;51.214;22.574;2023-05-14T01:09:53;40.13;;;16.77;;
23101;SDS011;11720;51.214;22.574;2023-05-14T01:15:14;43.10;;;15.50;;
23101;SDS011;11720;51.214;22.574;2023-05-14T01:17:55;35.27;;;13.03;;
23101;SDS011;11720;51.214;22.574;2023-05-14T01:20:25;31.60;;;14.83;;
23101;SDS011;11720;51.214;22.574;2023-05-14T01:22:51;40.80;;;15.47;;
23101;SDS011;11720;51.214;22.574;2023-05-14T01:25:16;38.53;;;15.67;;
23101;SDS011;11720;51.214;22.574;2023-05-14T01:27:56;45.10;;;16.67;;
23101;SDS011;11720;51.214;22.574;2023-05-14T01:33:30;36.05;;;12.82;;
23101;SDS011;11720;51.214;22.574;2023-05-14T01:35:59;32.80;;;13.17;;
23101;SDS011;11720;51.214;22.574;2023-05-14T01:38:25;38.77;;;15.03;;
23101;SDS011;11720;51.214;22.574;2023-05-14T01:40:55;33.93;;;14.37;;
23101;SDS011;11720;51.214;22.574;2023-05-14T01:43:22;39.23;;;14.60;;
23101;SDS011;11720;51.214;22.574;2023-05-14T01:45:48;36.47;;;15.83;;
23101;SDS011;11720;51.214;22.574;2023-05-14T01:48:14;35.30;;;13.57;;
23101;SDS011;11720;51.214;22.574;2023-05-14T01:50:39;37.07;;;14.57;;
23101;SDS011;11720;51.214;22.574;2023-05-14T01:53:05;35.87;;;14.00;;
23101;SDS011;11720;51.214;22.574;2023-05-14T01:55:31;31.60;;;12.83;;
23101;SDS011;11720;51.214;22.574;2023-05-14T01:57:57;31.47;;;13.20;;
23101;SDS011;11720;51.214;22.574;2023-05-14T02:00:23;31.13;;;12.83;;
23101;SDS011;11720;51.214;22.574;2023-05-14T02:02:51;22.13;;;10.53;;
23101;SDS011;11720;51.214;22.574;2023-05-14T02:05:17;30.47;;;11.77;;
23101;SDS011;11720;51.214;22.574;2023-05-14T02:07:43;27.30;;;12.87;;
23101;SDS011;11720;51.214;22.574;2023-05-14T02:10:09;28.50;;;12.67;;
23101;SDS011;11720;51.214;22.574;2023-05-14T02:12:35;37.40;;;12.60;;
23101;SDS011;11720;51.214;22.574;2023-05-14T02:15:01;28.47;;;11.47;;
23101;SDS011;11720;51.214;22.574;2023-05-14T02:17:28;29.83;;;12.23;;
23101;SDS011;11720;51.214;22.574;2023-05-14T02:19:53;30.50;;;12.37;;
23101;SDS011;11720;51.214;22.574;2023-05-14T02:22:19;30.73;;;12.43;;
23101;SDS011;11720;51.214;22.574;2023-05-14T02:24:45;26.37;;;11.30;;
23101;SDS011;11720;51.214;22.574;2023-05-14T02:27:11;24.77;;;10.87;;
23101;SDS011;11720;51.214;22.574;2023-05-14T02:29:37;27.33;;;10.30;;
23101;SDS011;11720;51.214;22.574;2023-05-14T02:32:03;33.67;;;11.87;;
23101;SDS011;11720;51.214;22.574;2023-05-14T02:34:29;26.17;;;10.73;;
23101;SDS011;11720;51.214;22.574;2023-05-14T02:36:55;29.73;;;11.50;;
23101;SDS011;11720;51.214;22.574;2023-05-14T02:39:21;26.93;;;10.23;;
23101;SDS011;11720;51.214;22.574;2023-05-14T02:41:46;24.50;;;11.07;;
23101;SDS011;11720;51.214;22.574;2023-05-14T02:44:12;22.83;;;10.93;;
23101;SDS011;11720;51.214;22.574;2023-05-14T02:46:38;28.93;;;10.83;;
23101;SDS011;11720;51.214;22.574;2023-05-14T02:49:04;29.83;;;9.80;;
23101;SDS011;11720;51.214;22.574;2023-05-14T02:51:30;18.80;;;9.53;;
23101;SDS011;11720;51.214;22.574;2023-05-14T02:53:55;25.43;;;10.60;;
23101;SDS011;11720;51.214;22.574;2023-05-14T02:56:21;18.73;;;9.50;;
23101;SDS011;11720;51.214;22.574;2023-05-14T02:58:47;21.23;;;9.43;;
23101;SDS011;11720;51.214;22.574;2023-05-14T03:01:12;26.10;;;11.10;;
23101;SDS011;11720;51.214;22.574;2023-05-14T03:03:38;24.97;;;10.67;;
23101;SDS011;11720;51.214;22.574;2023-05-14T03:06:05;18.83;;;9.37;;
23101;SDS011;11720;51.214;22.574;2023-05-14T03:08:30;32.50;;;10.67;;
23101;SDS011;11720;51.214;22.574;2023-05-14T03:10:56;26.77;;;11.00;;
23101;SDS011;11720;51.214;22.574;2023-05-14T03:13:22;24.87;;;11.23;;
23101;SDS011;11720;51.214;22.574;2023-05-14T03:15:48;31.33;;;11.47;;
23101;SDS011;11720;51.214;22.574;2023-05-14T03:18:18;32.40;;;11.27;;
23101;SDS011;11720;51.214;22.574;2023-05-14T03:20:44;33.13;;;13.40;;
23101;SDS011;11720;51.214;22.574;2023-05-14T03:23:10;26.13;;;13.10;;
23101;SDS011;11720;51.214;22.574;2023-05-14T03:25:36;27.17;;;14.27;;
23101;SDS011;11720;51.214;22.574;2023-05-14T03:28:02;36.57;;;15.80;;
23101;SDS011;11720;51.214;22.574;2023-05-14T03:30:28;30.90;;;13.60;;
23101;SDS011;11720;51.214;22.574;2023-05-14T03:32:54;29.70;;;14.50;;
23101;SDS011;11720;51.214;22.574;2023-05-14T03:35:19;29.27;;;12.37;;
23101;SDS011;11720;51.214;22.574;2023-05-14T03:37:45;26.17;;;12.23;;
23101;SDS011;11720;51.214;22.574;2023-05-14T03:40:11;30.20;;;11.87;;
23101;SDS011;11720;51.214;22.574;2023-05-14T03:42:36;25.40;;;11.77;;
23101;SDS011;11720;51.214;22.574;2023-05-14T03:45:02;25.90;;;10.90;;
23101;SDS011;11720;51.214;22.574;2023-05-14T03:47:28;26.63;;;12.53;;
23101;SDS011;11720;51.214;22.574;2023-05-14T03:49:54;26.92;;;11.95;;
23101;SDS011;11720;51.214;22.574;2023-05-14T03:52:20;31.87;;;12.80;;
23101;SDS011;11720;51.214;22.574;2023-05-14T03:54:46;29.25;;;11.80;;
23101;SDS011;11720;51.214;22.574;2023-05-14T03:57:12;25.20;;;10.67;;
23101;SDS011;11720;51.214;22.574;2023-05-14T03:59:37;24.13;;;10.47;;
23101;SDS011;11720;51.214;22.574;2023-05-14T04:02:03;23.37;;;10.37;;
23101;SDS011;11720;51.214;22.574;2023-05-14T04:04:29;15.37;;;8.30;;
23101;SDS011;11720;51.214;22.574;2023-05-14T04:06:54;19.25;;;9.02;;
23101;SDS011;11720;51.214;22.574;2023-05-14T04:09:20;14.43;;;8.20;;
23101;SDS011;11720;51.214;22.574;2023-05-14T04:11:45;11.27;;;7.45;;
23101;SDS011;11720;51.214;22.574;2023-05-14T04:14:11;14.55;;;7.55;;
23101;SDS011;11720;51.214;22.574;2023-05-14T04:16:37;18.90;;;8.57;;
23101;SDS011;11720;51.214;22.574;2023-05-14T04:19:02;23.63;;;8.23;;
23101;SDS011;11720;51.214;22.574;2023-05-14T04:21:29;15.17;;;7.13;;
23101;SDS011;11720;51.214;22.574;2023-05-14T04:23:55;18.50;;;7.90;;
23101;SDS011;11720;51.214;22.574;2023-05-14T04:26:21;17.35;;;6.68;;
23101;SDS011;11720;51.214;22.574;2023-05-14T04:28:47;21.30;;;8.38;;
23101;SDS011;11720;51.214;22.574;2023-05-14T04:31:14;19.75;;;7.25;;
23101;SDS011;11720;51.214;22.574;2023-05-14T04:33:39;10.63;;;6.03;;
23101;SDS011;11720;51.214;22.574;2023-05-14T04:36:06;15.52;;;6.95;;
23101;SDS011;11720;51.214;22.574;2023-05-14T04:38:32;11.98;;;7.03;;
23101;SDS011;11720;51.214;22.574;2023-05-14T04:40:58;17.13;;;7.80;;
23101;SDS011;11720;51.214;22.574;2023-05-14T04:43:23;10.65;;;6.03;;
23101;SDS011;11720;51.214;22.574;2023-05-14T04:45:49;15.10;;;6.57;;
23101;SDS011;11720;51.214;22.574;2023-05-14T04:48:16;10.90;;;6.00;;
23101;SDS011;11720;51.214;22.574;2023-05-14T04:50:42;14.80;;;6.38;;
23101;SDS011;11720;51.214;22.574;2023-05-14T04:53:08;10.85;;;6.65;;
23101;SDS011;11720;51.214;22.574;2023-05-14T04:55:34;12.05;;;5.68;;
23101;SDS011;11720;51.214;22.574;2023-05-14T04:58:00;10.82;;;6.13;;
23101;SDS011;11720;51.214;22.574;2023-05-14T05:00:26;10.00;;;5.25;;
23101;SDS011;11720;51.214;22.574;2023-05-14T05:02:52;10.23;;;5.80;;
23101;SDS011;11720;51.214;22.574;2023-05-14T05:05:18;8.18;;;5.47;;
23101;SDS011;11720;51.214;22.574;2023-05-14T05:07:44;11.02;;;5.57;;
23101;SDS011;11720;51.214;22.574;2023-05-14T05:10:10;11.57;;;5.22;;
23101;SDS011;11720;51.214;22.574;2023-05-14T05:12:35;10.25;;;4.97;;
23101;SDS011;11720;51.214;22.574;2023-05-14T05:15:01;9.65;;;4.72;;
23101;SDS011;11720;51.214;22.574;2023-05-14T05:17:28;13.30;;;5.13;;
23101;SDS011;11720;51.214;22.574;2023-05-14T05:19:54;9.88;;;5.00;;
23101;SDS011;11720;51.214;22.574;2023-05-14T05:22:19;11.10;;;4.18;;
23101;SDS011;11720;51.214;22.574;2023-05-14T05:24:45;5.85;;;3.97;;
23101;SDS011;11720;51.214;22.574;2023-05-14T05:27:11;5.00;;;3.30;;
23101;SDS011;11720;51.214;22.574;2023-05-14T05:29:37;5.43;;;3.17;;
23101;SDS011;11720;51.214;22.574;2023-05-14T05:32:03;6.50;;;3.50;;
23101;SDS011;11720;51.214;22.574;2023-05-14T05:34:29;6.10;;;3.40;;
23101;SDS011;11720;51.214;22.574;2023-05-14T05:36:55;4.95;;;3.25;;
23101;SDS011;11720;51.214;22.574;2023-05-14T05:39:21;5.75;;;3.45;;
23101;SDS011;11720;51.214;22.574;2023-05-14T05:41:46;6.85;;;3.53;;
23101;SDS011;11720;51.214;22.574;2023-05-14T05:44:12;6.10;;;3.40;;
23101;SDS011;11720;51.214;22.574;2023-05-14T05:46:38;4.90;;;3.30;;
23101;SDS011;11720;51.214;22.574;2023-05-14T05:49:03;5.63;;;3.58;;
23101;SDS011;11720;51.214;22.574;2023-05-14T05:51:29;5.75;;;3.70;;
23101;SDS011;11720;51.214;22.574;2023-05-14T05:53:55;6.57;;;3.10;;
23101;SDS011;11720;51.214;22.574;2023-05-14T05:56:21;3.90;;;2.83;;
23101;SDS011;11720;51.214;22.574;2023-05-14T05:58:47;4.28;;;3.03;;
23101;SDS011;11720;51.214;22.574;2023-05-14T06:01:18;11.27;;;4.80;;
23101;SDS011;11720;51.214;22.574;2023-05-14T06:03:44;6.40;;;4.18;;
23101;SDS011;11720;51.214;22.574;2023-05-14T06:06:09;10.27;;;3.50;;
23101;SDS011;11720;51.214;22.574;2023-05-14T06:08:35;6.97;;;3.17;;
23101;SDS011;11720;51.214;22.574;2023-05-14T06:11:01;6.07;;;3.30;;
23101;SDS011;11720;51.214;22.574;2023-05-14T06:13:26;6.57;;;3.45;;
23101;SDS011;11720;51.214;22.574;2023-05-14T06:15:52;4.18;;;2.55;;
23101;SDS011;11720;51.214;22.574;2023-05-14T06:18:18;4.05;;;2.83;;
23101;SDS011;11720;51.214;22.574;2023-05-14T06:20:43;5.28;;;2.97;;
23101;SDS011;11720;51.214;22.574;2023-05-14T06:23:09;4.03;;;2.72;;
23101;SDS011;11720;51.214;22.574;2023-05-14T06:25:36;7.10;;;2.90;;
23101;SDS011;11720;51.214;22.574;2023-05-14T06:28:01;5.68;;;2.85;;
23101;SDS011;11720;51.214;22.574;2023-05-14T06:30:27;5.45;;;3.13;;
23101;SDS011;11720;51.214;22.574;2023-05-14T06:32:53;3.90;;;2.63;;
23101;SDS011;11720;51.214;22.574;2023-05-14T06:35:19;5.15;;;2.60;;
23101;SDS011;11720;51.214;22.574;2023-05-14T06:37:45;3.15;;;2.20;;
23101;SDS011;11720;51.214;22.574;2023-05-14T06:40:11;8.98;;;2.80;;
23101;SDS011;11720;51.214;22.574;2023-05-14T06:42:39;4.13;;;2.53;;
23101;SDS011;11720;51.214;22.574;2023-05-14T06:45:05;4.47;;;2.58;;
23101;SDS011;11720;51.214;22.574;2023-05-14T06:47:31;4.97;;;2.13;;
23101;SDS011;11720;51.214;22.574;2023-05-14T06:49:57;3.58;;;2.15;;
23101;SDS011;11720;51.214;22.574;2023-05-14T06:52:24;4.00;;;2.28;;
23101;SDS011;11720;51.214;22.574;2023-05-14T06:54:50;3.03;;;1.85;;
23101;SDS011;11720;51.214;22.574;2023-05-14T06:57:16;4.10;;;2.13;;
23101;SDS011;11720;51.214;22.574;2023-05-14T06:59:42;2.75;;;2.10;;
23101;SDS011;11720;51.214;22.574;2023-05-14T07:02:07;3.78;;;2.25;;
23101;SDS011;11720;51.214;22.574;2023-05-14T07:04:33;2.15;;;1.60;;
23101;SDS011;11720;51.214;22.574;2023-05-14T07:07:00;6.40;;;2.42;;
23101;SDS011;11720;51.214;22.574;2023-05-14T07:09:25;4.20;;;2.38;;
23101;SDS011;11720;51.214;22.574;2023-05-14T07:11:51;2.35;;;1.60;;
23101;SDS011;11720;51.214;22.574;2023-05-14T07:14:17;3.95;;;1.98;;
23101;SDS011;11720;51.214;22.574;2023-05-14T07:16:42;5.00;;;2.10;;
23101;SDS011;11720;51.214;22.574;2023-05-14T07:19:09;3.05;;;1.83;;
23101;SDS011;11720;51.214;22.574;2023-05-14T07:21:35;2.83;;;1.50;;
23101;SDS011;11720;51.214;22.574;2023-05-14T07:24:01;3.90;;;1.92;;
23101;SDS011;11720;51.214;22.574;2023-05-14T07:26:26;2.45;;;2.15;;
23101;SDS011;11720;51.214;22.574;2023-05-14T07:28:52;3.08;;;2.10;;
23101;SDS011;11720;51.214;22.574;2023-05-14T07:31:22;3.80;;;1.75;;
23101;SDS011;11720;51.214;22.574;2023-05-14T07:33:47;4.72;;;1.83;;
23101;SDS011;11720;51.214;22.574;2023-05-14T07:36:13;5.78;;;2.05;;
23101;SDS011;11720;51.214;22.574;2023-05-14T07:38:39;5.32;;;2.63;;
23101;SDS011;11720;51.214;22.574;2023-05-14T07:41:05;2.20;;;1.70;;
23101;SDS011;11720;51.214;22.574;2023-05-14T07:43:32;3.25;;;2.00;;
23101;SDS011;11720;51.214;22.574;2023-05-14T07:45:58;2.08;;;1.83;;
23101;SDS011;11720;51.214;22.574;2023-05-14T07:48:23;2.92;;;1.95;;
23101;SDS011;11720;51.214;22.574;2023-05-14T07:50:49;3.17;;;1.90;;
23101;SDS011;11720;51.214;22.574;2023-05-14T07:53:15;2.80;;;2.22;;
23101;SDS011;11720;51.214;22.574;2023-05-14T07:55:41;3.55;;;2.03;;
23101;SDS011;11720;51.214;22.574;2023-05-14T07:58:09;2.80;;;2.00;;
23101;SDS011;11720;51.214;22.574;2023-05-14T08:00:34;2.05;;;1.70;;
23101;SDS011;11720;51.214;22.574;2023-05-14T08:03:00;2.05;;;1.55;;
23101;SDS011;11720;51.214;22.574;2023-05-14T08:05:26;3.13;;;2.08;;
23101;SDS011;11720;51.214;22.574;2023-05-14T08:07:57;3.90;;;2.10;;
23101;SDS011;11720;51.214;22.574;2023-05-14T08:10:23;2.53;;;1.73;;
23101;SDS011;11720;51.214;22.574;2023-05-14T08:12:48;3.50;;;1.98;;
23101;SDS011;11720;51.214;22.574;2023-05-14T08:15:14;3.75;;;2.13;;
23101;SDS011;11720;51.214;22.574;2023-05-14T08:17:40;2.95;;;2.08;;
23101;SDS011;11720;51.214;22.574;2023-05-14T08:20:07;1.50;;;1.40;;
23101;SDS011;11720;51.214;22.574;2023-05-14T08:22:33;2.90;;;1.70;;
23101;SDS011;11720;51.214;22.574;2023-05-14T08:24:59;2.38;;;1.75;;
23101;SDS011;11720;51.214;22.574;2023-05-14T08:27:27;6.25;;;1.40;;
23101;SDS011;11720;51.214;22.574;2023-05-14T08:29:52;3.53;;;1.83;;
23101;SDS011;11720;51.214;22.574;2023-05-14T08:32:18;3.75;;;1.77;;
23101;SDS011;11720;51.214;22.574;2023-05-14T08:34:43;3.05;;;1.90;;
23101;SDS011;11720;51.214;22.574;2023-05-14T08:37:09;5.43;;;1.73;;
23101;SDS011;11720;51.214;22.574;2023-05-14T08:39:35;2.50;;;1.52;;
23101;SDS011;11720;51.214;22.574;2023-05-14T08:42:00;3.67;;;1.63;;
23101;SDS011;11720;51.214;22.574;2023-05-14T08:44:31;2.08;;;1.63;;
23101;SDS011;11720;51.214;22.574;2023-05-14T08:47:20;4.15;;;1.88;;
23101;SDS011;11720;51.214;22.574;2023-05-14T08:49:51;1.85;;;1.67;;
23101;SDS011;11720;51.214;22.574;2023-05-14T08:52:21;5.07;;;2.55;;
23101;SDS011;11720;51.214;22.574;2023-05-14T08:54:47;5.55;;;1.83;;
23101;SDS011;11720;51.214;22.574;2023-05-14T08:57:15;2.75;;;1.65;;
23101;SDS011;11720;51.214;22.574;2023-05-14T08:59:42;2.47;;;1.70;;
23101;SDS011;11720;51.214;22.574;2023-05-14T09:02:08;5.65;;;1.98;;
23101;SDS011;11720;51.214;22.574;2023-05-14T09:04:35;2.45;;;1.60;;
23101;SDS011;11720;51.214;22.574;2023-05-14T09:07:02;2.30;;;1.45;;
23101;SDS011;11720;51.214;22.574;2023-05-14T09:09:28;4.88;;;1.83;;
23101;SDS011;11720;51.214;22.574;2023-05-14T09:11:54;1.50;;;1.40;;
23101;SDS011;11720;51.214;22.574;2023-05-14T09:14:21;3.60;;;1.52;;
23101;SDS011;11720;51.214;22.574;2023-05-14T09:16:48;3.03;;;2.00;;
23101;SDS011;11720;51.214;22.574;2023-05-14T09:19:15;3.05;;;2.00;;
23101;SDS011;11720;51.214;22.574;2023-05-14T09:21:43;2.15;;;1.63;;
23101;SDS011;11720;51.214;22.574;2023-05-14T09:24:17;2.92;;;2.00;;
23101;SDS011;11720;51.214;22.574;2023-05-14T09:26:52;3.13;;;2.00;;
23101;SDS011;11720;51.214;22.574;2023-05-14T09:29:20;5.28;;;1.80;;
23101;SDS011;11720;51.214;22.574;2023-05-14T09:31:49;2.25;;;1.40;;
23101;SDS011;11720;51.214;22.574;2023-05-14T09:34:29;4.55;;;1.83;;
23101;SDS011;11720;51.214;22.574;2023-05-14T09:39:25;2.55;;;1.60;;
23101;SDS011;11720;51.214;22.574;2023-05-14T09:41:51;3.40;;;1.67;;
23101;SDS011;11720;51.214;22.574;2023-05-14T09:44:17;2.78;;;1.70;;
23101;SDS011;11720;51.214;22.574;2023-05-14T09:46:44;2.53;;;1.50;;
23101;SDS011;11720;51.214;22.574;2023-05-14T09:49:10;4.70;;;1.98;;
23101;SDS011;11720;51.214;22.574;2023-05-14T09:51:36;2.70;;;1.75;;
23101;SDS011;11720;51.214;22.574;2023-05-14T09:54:03;2.42;;;1.83;;
23101;SDS011;11720;51.214;22.574;2023-05-14T09:56:29;5.45;;;2.15;;
23101;SDS011;11720;51.214;22.574;2023-05-14T09:58:56;1.85;;;1.40;;
23101;SDS011;11720;51.214;22.574;2023-05-14T10:01:22;2.65;;;1.70;;
23101;SDS011;11720;51.214;22.574;2023-05-14T10:03:49;2.50;;;1.63;;
23101;SDS011;11720;51.214;22.574;2023-05-14T10:06:16;2.72;;;1.70;;
23101;SDS011;11720;51.214;22.574;2023-05-14T10:08:45;3.15;;;1.98;;
23101;SDS011;11720;51.214;22.574;2023-05-14T10:11:20;5.03;;;1.92;;
23101;SDS011;11720;51.214;22.574;2023-05-14T10:14:32;3.05;;;1.90;;
23101;SDS011;11720;51.214;22.574;2023-05-14T10:16:44;2.35;;;1.85;;
23101;SDS011;11720;51.214;22.574;2023-05-14T10:19:14;4.95;;;2.13;;
23101;SDS011;11720;51.214;22.574;2023-05-14T10:21:43;3.67;;;1.55;;
23101;SDS011;11720;51.214;22.574;2023-05-14T10:24:13;5.07;;;2.00;;
23101;SDS011;11720;51.214;22.574;2023-05-14T10:26:39;2.67;;;2.17;;
23101;SDS011;11720;51.214;22.574;2023-05-14T10:29:06;4.18;;;2.15;;
23101;SDS011;11720;51.214;22.574;2023-05-14T10:34:39;2.47;;;1.70;;
23101;SDS011;11720;51.214;22.574;2023-05-14T10:37:09;2.10;;;1.90;;
23101;SDS011;11720;51.214;22.574;2023-05-14T10:39:49;6.13;;;2.00;;
23101;SDS011;11720;51.214;22.574;2023-05-14T10:42:21;2.33;;;1.83;;
23101;SDS011;11720;51.214;22.574;2023-05-14T10:47:22;2.53;;;1.83;;
23101;SDS011;11720;51.214;22.574;2023-05-14T10:49:48;2.92;;;1.90;;
23101;SDS011;11720;51.214;22.574;2023-05-14T10:52:17;2.13;;;1.92;;
23101;SDS011;11720;51.214;22.574;2023-05-14T10:54:50;2.72;;;1.98;;
23101;SDS011;11720;51.214;22.574;2023-05-14T10:57:29;2.40;;;1.83;;
23101;SDS011;11720;51.214;22.574;2023-05-14T10:59:56;3.00;;;2.13;;
23101;SDS011;11720;51.214;22.574;2023-05-14T11:02:24;3.88;;;1.60;;
23101;SDS011;11720;51.214;22.574;2023-05-14T11:05:00;4.15;;;1.70;;
23101;SDS011;11720;51.214;22.574;2023-05-14T11:07:29;1.58;;;1.40;;
23101;SDS011;11720;51.214;22.574;2023-05-14T11:12:27;4.82;;;1.63;;
23101;SDS011;11720;51.214;22.574;2023-05-14T11:14:54;2.25;;;1.55;;
23101;SDS011;11720;51.214;22.574;2023-05-14T11:17:22;2.72;;;1.95;;
23101;SDS011;11720;51.214;22.574;2023-05-14T11:19:52;2.40;;;1.73;;
23101;SDS011;11720;51.214;22.574;2023-05-14T11:22:19;3.03;;;1.67;;
23101;SDS011;11720;51.214;22.574;2023-05-14T11:24:45;2.20;;;1.70;;
23101;SDS011;11720;51.214;22.574;2023-05-14T11:27:11;7.10;;;1.88;;
23101;SDS011;11720;51.214;22.574;2023-05-14T11:29:37;5.47;;;1.55;;
23101;SDS011;11720;51.214;22.574;2023-05-14T11:32:03;2.80;;;1.73;;
23101;SDS011;11720;51.214;22.574;2023-05-14T11:34:30;1.50;;;1.40;;
23101;SDS011;11720;51.214;22.574;2023-05-14T11:36:56;2.88;;;2.00;;
23101;SDS011;11720;51.214;22.574;2023-05-14T11:39:22;2.63;;;1.65;;
23101;SDS011;11720;51.214;22.574;2023-05-14T11:41:48;2.90;;;1.58;;
23101;SDS011;11720;51.214;22.574;2023-05-14T11:44:13;2.30;;;1.75;;
23101;SDS011;11720;51.214;22.574;2023-05-14T11:46:39;3.60;;;2.25;;
23101;SDS011;11720;51.214;22.574;2023-05-14T11:49:05;5.95;;;2.17;;
23101;SDS011;11720;51.214;22.574;2023-05-14T11:51:31;4.38;;;1.95;;
23101;SDS011;11720;51.214;22.574;2023-05-14T11:53:57;2.78;;;1.92;;
23101;SDS011;11720;51.214;22.574;2023-05-14T11:56:25;3.33;;;1.60;;
23101;SDS011;11720;51.214;22.574;2023-05-14T11:58:56;2.92;;;1.45;;
23101;SDS011;11720;51.214;22.574;2023-05-14T12:01:22;2.45;;;1.50;;
23101;SDS011;11720;51.214;22.574;2023-05-14T12:03:49;2.92;;;1.88;;
23101;SDS011;11720;51.214;22.574;2023-05-14T12:06:14;4.65;;;1.77;;
23101;SDS011;11720;51.214;22.574;2023-05-14T12:08:40;2.80;;;1.40;;
23101;SDS011;11720;51.214;22.574;2023-05-14T12:11:06;2.50;;;1.75;;
23101;SDS011;11720;51.214;22.574;2023-05-14T12:13:33;6.00;;;1.90;;
23101;SDS011;11720;51.214;22.574;2023-05-14T12:16:00;3.00;;;1.48;;
23101;SDS011;11720;51.214;22.574;2023-05-14T12:18:30;2.53;;;1.73;;
23101;SDS011;11720;51.214;22.574;2023-05-14T12:21:02;1.85;;;1.40;;
23101;SDS011;11720;51.214;22.574;2023-05-14T12:23:30;1.48;;;1.20;;
23101;SDS011;11720;51.214;22.574;2023-05-14T12:26:03;2.00;;;1.20;;
23101;SDS011;11720;51.214;22.574;2023-05-14T12:28:31;1.83;;;1.52;;
23101;SDS011;11720;51.214;22.574;2023-05-14T12:30:57;2.72;;;1.65;;
23101;SDS011;11720;51.214;22.574;2023-05-14T12:33:24;2.92;;;1.40;;
23101;SDS011;11720;51.214;22.574;2023-05-14T12:35:51;1.50;;;1.20;;
23101;SDS011;11720;51.214;22.574;2023-05-14T12:38:18;1.92;;;1.50;;
23101;SDS011;11720;51.214;22.574;2023-05-14T12:40:44;2.90;;;1.20;;
23101;SDS011;11720;51.214;22.574;2023-05-14T12:43:10;1.55;;;1.30;;
23101;SDS011;11720;51.214;22.574;2023-05-14T12:45:35;2.78;;;1.20;;
23101;SDS011;11720;51.214;22.574;2023-05-14T12:48:01;1.60;;;1.10;;
23101;SDS011;11720;51.214;22.574;2023-05-14T12:50:27;3.22;;;1.20;;
23101;SDS011;11720;51.214;22.574;2023-05-14T12:52:53;1.55;;;1.45;;
23101;SDS011;11720;51.214;22.574;2023-05-14T12:55:18;3.30;;;1.13;;
23101;SDS011;11720;51.214;22.574;2023-05-14T12:57:44;2.88;;;1.45;;
23101;SDS011;11720;51.214;22.574;2023-05-14T13:00:10;1.50;;;1.30;;
23101;SDS011;11720;51.214;22.574;2023-05-14T13:02:36;2.30;;;1.23;;
23101;SDS011;11720;51.214;22.574;2023-05-14T13:05:01;1.98;;;1.40;;
23101;SDS011;11720;51.214;22.574;2023-05-14T13:07:28;1.90;;;1.00;;
23101;SDS011;11720;51.214;22.574;2023-05-14T13:09:55;2.00;;;1.25;;
23101;SDS011;11720;51.214;22.574;2023-05-14T13:12:24;1.17;;;1.00;;
23101;SDS011;11720;51.214;22.574;2023-05-14T13:14:50;1.02;;;1.00;;
23101;SDS011;11720;51.214;22.574;2023-05-14T13:17:16;1.63;;;1.10;;
23101;SDS011;11720;51.214;22.574;2023-05-14T13:19:41;3.25;;;1.60;;
23101;SDS011;11720;51.214;22.574;2023-05-14T13:22:07;2.85;;;1.40;;
23101;SDS011;11720;51.214;22.574;2023-05-14T13:24:33;3.50;;;1.40;;
23101;SDS011;11720;51.214;22.574;2023-05-14T13:26:58;2.60;;;1.30;;
23101;SDS011;11720;51.214;22.574;2023-05-14T13:29:26;2.33;;;1.27;;
23101;SDS011;11720;51.214;22.574;2023-05-14T13:31:53;2.00;;;1.30;;
23101;SDS011;11720;51.214;22.574;2023-05-14T13:34:19;2.35;;;1.40;;
23101;SDS011;11720;51.214;22.574;2023-05-14T13:36:45;3.28;;;1.27;;
23101;SDS011;11720;51.214;22.574;2023-05-14T13:39:11;4.03;;;0.90;;
23101;SDS011;11720;51.214;22.574;2023-05-14T13:41:37;1.30;;;0.98;;
23101;SDS011;11720;51.214;22.574;2023-05-14T13:44:04;1.17;;;1.08;;
23101;SDS011;11720;51.214;22.574;2023-05-14T13:46:31;1.27;;;1.08;;
23101;SDS011;11720;51.214;22.574;2023-05-14T13:48:57;1.20;;;1.05;;
23101;SDS011;11720;51.214;22.574;2023-05-14T13:51:22;1.33;;;1.10;;
23101;SDS011;11720;51.214;22.574;2023-05-14T13:53:48;1.75;;;1.00;;
23101;SDS011;11720;51.214;22.574;2023-05-14T13:56:14;1.58;;;1.20;;
23101;SDS011;11720;51.214;22.574;2023-05-14T13:58:39;2.00;;;1.52;;
23101;SDS011;11720;51.214;22.574;2023-05-14T14:01:05;1.40;;;1.30;;
23101;SDS011;11720;51.214;22.574;2023-05-14T14:03:31;1.02;;;1.00;;
23101;SDS011;11720;51.214;22.574;2023-05-14T14:05:57;1.13;;;1.02;;
23101;SDS011;11720;51.214;22.574;2023-05-14T14:08:22;2.13;;;1.33;;
23101;SDS011;11720;51.214;22.574;2023-05-14T14:10:48;1.45;;;1.10;;
23101;SDS011;11720;51.214;22.574;2023-05-14T14:13:14;1.20;;;1.10;;
23101;SDS011;11720;51.214;22.574;2023-05-14T14:15:40;1.10;;;1.05;;
23101;SDS011;11720;51.214;22.574;2023-05-14T14:18:06;1.05;;;1.00;;
23101;SDS011;11720;51.214;22.574;2023-05-14T14:20:32;4.60;;;1.10;;
23101;SDS011;11720;51.214;22.574;2023-05-14T14:22:58;1.58;;;1.48;;
23101;SDS011;11720;51.214;22.574;2023-05-14T14:25:24;1.23;;;0.88;;
23101;SDS011;11720;51.214;22.574;2023-05-14T14:27:49;1.67;;;1.30;;
23101;SDS011;11720;51.214;22.574;2023-05-14T14:30:17;1.58;;;1.30;;
23101;SDS011;11720;51.214;22.574;2023-05-14T14:32:46;3.75;;;1.58;;
23101;SDS011;11720;51.214;22.574;2023-05-14T14:35:13;2.85;;;1.23;;
23101;SDS011;11720;51.214;22.574;2023-05-14T14:37:41;1.45;;;1.10;;
23101;SDS011;11720;51.214;22.574;2023-05-14T14:40:09;1.88;;;1.50;;
23101;SDS011;11720;51.214;22.574;2023-05-14T14:42:35;1.98;;;1.45;;